• Join FlightAware (Why Join?)
  • Login
  • US Flag 
11:01PM EST


 

Airport Tracker/Info


-or-


 

Live Flight TrackerFlight Track Log ✈ C-GRDF ✈ 17-Apr-2013 ✈ CYSL - CYFC

Flight Track Log - Related Links

Times and Time Zones

All times are in EDT time to prevent confusion due to time zone crossing. See the C-GRDF flight status page for this flight to view local times or setup timezone preferences in your user account.

Time Position Orientation Groundspeed Altitude Reporting Facility
EDT Latitude Longitude Course Direction KTS MPH feet Rate Location/Type
07:37PM 47.1500 -67.7667 52° Northeast 170 196 4,800  Level Moncton Center
07:38PM 47.1561 -67.7550 52° Northeast 258 297 5,200 2,400 Climbing Boston Center
07:39PM 47.0500 -67.6667 150° Southeast 210 242 9,700 2,400 Climbing Moncton Center
07:40PM 47.0000 -67.6167 146° Southeast 220 253 11,900 2,400 Climbing Moncton Center
07:41PM 46.9500 -67.5667 146° Southeast 230 265 14,600 1,560 Climbing Moncton Center
07:42PM 46.8833 -67.5000 146° Southeast 250 288 15,100 240 Climbing Moncton Center
07:43PM 46.8167 -67.4500 153° Southeast 300 345 15,100  Level Moncton Center
07:44PM 46.7333 -67.3833 151° Southeast 320 368 15,100  Level Moncton Center
07:45PM 46.6667 -67.3000 139° Southeast 320 368 15,100  Level Moncton Center
07:46PM 46.6000 -67.2167 139° Southeast 330 380 15,100 -600 Level Moncton Center
07:47PM 46.5167 -67.1500 151° Southeast 330 380 14,000 -1,500 Descending Moncton Center
07:48PM 46.4500 -67.1000 153° Southeast 320 368 12,100 -1,980 Descending Moncton Center
07:49PM 46.3667 -67.0167 145° Southeast 320 368 10,100 -1,800 Descending Moncton Center
07:50PM 46.3000 -66.9333 139° Southeast 300 345 8,600 -1,260 Descending Moncton Center
07:51PM 46.2333 -66.8833 153° Southeast 290 334 7,600 -1,200 Descending Moncton Center
07:52PM 46.1667 -66.8167 145° Southeast 280 322 6,200 -1,200 Descending Moncton Center
07:53PM 46.1000 -66.7667 153° Southeast 260 299 5,300 -1,140 Descending Moncton Center
07:54PM 46.0500 -66.7167 145° Southeast 250 288 4,000 -1,260 Descending Moncton Center
07:55PM 45.9833 -66.6667 152° Southeast 250 288 2,800 -960 Descending Moncton Center
07:56PM 45.9333 -66.5833 131° Southeast 240 276 2,100 -540 Descending Moncton Center
07:57PM 45.8833 -66.5333 145° Southeast 230 265 1,800 -300 Descending Moncton Center
07:59PM 45.8667 -66.5333 145° Southeast  Level FlightAware Approximate
08:06PM 45.8689 -66.5372 145° Southeast  Level Estimated